Ashland, Missouri
Current Conditions -  °F | °C
As of 2:54 PM on Friday 31 Oct 2014 (Local Time) from KCOU Reporting Station
Clear Clear  
Wind Chill: 39°   Ceiling: Unl
Heat Index: 46°   Visibility: 10mi
Dew Point: 18°   Wind: 17mph
Humidity: 33%   Direction: 350°N
Pressure: 30.37"   Gusts: 25mph
Location:  38.77°N, 92.26°W
Report Text: KCOU 311954Z 35015G22KT 10SM CLR 08/M08 A3037 RMK AO2 PK WND 35028/1901 SLP287 T00781078
Loading
Personal Weather Stations






























Interactive Weather Map
Tropical Storm Tracking
New forecast layout! Learn more

10-Day Weather Forecast

Advertisements
Track Severe Weather on mobile